sensor_id;sensor_type;location;lat;lon;timestamp;P1;durP1;ratioP1;P2;durP2;ratioP2
41253;SDS011;26987;59.928;30.306;2022-08-05T00:01:27;4.75;;;2.30;;
41253;SDS011;26987;59.928;30.306;2022-08-05T00:03:55;8.93;;;2.97;;
41253;SDS011;26987;59.928;30.306;2022-08-05T00:06:23;10.15;;;3.15;;
41253;SDS011;26987;59.928;30.306;2022-08-05T00:08:53;10.18;;;2.88;;
41253;SDS011;26987;59.928;30.306;2022-08-05T00:11:21;12.73;;;2.40;;
41253;SDS011;26987;59.928;30.306;2022-08-05T00:13:49;8.43;;;2.78;;
41253;SDS011;26987;59.928;30.306;2022-08-05T00:16:17;13.90;;;2.85;;
41253;SDS011;26987;59.928;30.306;2022-08-05T00:18:45;14.73;;;2.70;;
41253;SDS011;26987;59.928;30.306;2022-08-05T00:21:15;9.98;;;2.72;;
41253;SDS011;26987;59.928;30.306;2022-08-05T00:23:44;14.77;;;2.70;;
41253;SDS011;26987;59.928;30.306;2022-08-05T00:26:16;6.40;;;2.70;;
41253;SDS011;26987;59.928;30.306;2022-08-05T00:28:44;7.20;;;2.40;;
41253;SDS011;26987;59.928;30.306;2022-08-05T00:31:12;7.32;;;2.28;;
41253;SDS011;26987;59.928;30.306;2022-08-05T00:33:40;11.88;;;3.75;;
41253;SDS011;26987;59.928;30.306;2022-08-05T00:36:08;6.32;;;2.20;;
41253;SDS011;26987;59.928;30.306;2022-08-05T00:38:36;12.30;;;2.50;;
41253;SDS011;26987;59.928;30.306;2022-08-05T00:41:04;10.88;;;2.25;;
41253;SDS011;26987;59.928;30.306;2022-08-05T00:43:34;7.65;;;2.47;;
41253;SDS011;26987;59.928;30.306;2022-08-05T00:46:03;9.10;;;2.00;;
41253;SDS011;26987;59.928;30.306;2022-08-05T00:48:30;7.13;;;2.20;;
41253;SDS011;26987;59.928;30.306;2022-08-05T00:50:58;4.57;;;2.17;;
41253;SDS011;26987;59.928;30.306;2022-08-05T00:53:26;10.43;;;2.40;;
41253;SDS011;26987;59.928;30.306;2022-08-05T00:55:54;9.82;;;2.72;;
41253;SDS011;26987;59.928;30.306;2022-08-05T00:58:22;9.32;;;2.35;;
41253;SDS011;26987;59.928;30.306;2022-08-05T01:00:52;8.00;;;1.65;;
41253;SDS011;26987;59.928;30.306;2022-08-05T01:03:20;8.52;;;2.22;;
41253;SDS011;26987;59.928;30.306;2022-08-05T01:05:49;10.60;;;3.50;;
41253;SDS011;26987;59.928;30.306;2022-08-05T01:08:17;8.00;;;1.90;;
41253;SDS011;26987;59.928;30.306;2022-08-05T01:10:46;8.85;;;2.33;;
41253;SDS011;26987;59.928;30.306;2022-08-05T01:13:20;10.52;;;2.35;;
41253;SDS011;26987;59.928;30.306;2022-08-05T01:15:55;6.32;;;2.00;;
41253;SDS011;26987;59.928;30.306;2022-08-05T01:18:28;5.00;;;2.22;;
41253;SDS011;26987;59.928;30.306;2022-08-05T01:21:01;5.88;;;1.90;;
41253;SDS011;26987;59.928;30.306;2022-08-05T01:23:39;4.88;;;1.98;;
41253;SDS011;26987;59.928;30.306;2022-08-05T01:29:18;7.63;;;2.10;;
41253;SDS011;26987;59.928;30.306;2022-08-05T01:31:51;6.93;;;2.33;;
41253;SDS011;26987;59.928;30.306;2022-08-05T01:34:22;3.47;;;2.00;;
41253;SDS011;26987;59.928;30.306;2022-08-05T01:36:53;9.30;;;2.17;;
41253;SDS011;26987;59.928;30.306;2022-08-05T01:39:27;9.85;;;2.95;;
41253;SDS011;26987;59.928;30.306;2022-08-05T01:41:57;10.38;;;3.00;;
41253;SDS011;26987;59.928;30.306;2022-08-05T01:44:27;10.38;;;3.15;;
41253;SDS011;26987;59.928;30.306;2022-08-05T01:46:58;11.23;;;2.85;;
41253;SDS011;26987;59.928;30.306;2022-08-05T01:49:28;9.27;;;3.35;;
41253;SDS011;26987;59.928;30.306;2022-08-05T01:51:58;8.13;;;3.45;;
41253;SDS011;26987;59.928;30.306;2022-08-05T01:54:30;12.13;;;3.78;;
41253;SDS011;26987;59.928;30.306;2022-08-05T01:57:02;9.32;;;2.90;;
41253;SDS011;26987;59.928;30.306;2022-08-05T01:59:34;11.18;;;3.20;;
41253;SDS011;26987;59.928;30.306;2022-08-05T02:02:06;10.15;;;2.90;;
41253;SDS011;26987;59.928;30.306;2022-08-05T02:04:38;12.02;;;4.20;;
41253;SDS011;26987;59.928;30.306;2022-08-05T02:07:08;11.23;;;4.50;;
41253;SDS011;26987;59.928;30.306;2022-08-05T02:09:36;12.77;;;4.88;;
41253;SDS011;26987;59.928;30.306;2022-08-05T02:12:05;14.65;;;5.10;;
41253;SDS011;26987;59.928;30.306;2022-08-05T02:14:39;13.70;;;5.45;;
41253;SDS011;26987;59.928;30.306;2022-08-05T02:17:12;22.33;;;4.78;;
41253;SDS011;26987;59.928;30.306;2022-08-05T02:19:47;14.85;;;4.97;;
41253;SDS011;26987;59.928;30.306;2022-08-05T02:22:22;12.57;;;4.60;;
41253;SDS011;26987;59.928;30.306;2022-08-05T02:24:55;9.88;;;4.40;;
41253;SDS011;26987;59.928;30.306;2022-08-05T02:27:33;14.95;;;4.80;;
41253;SDS011;26987;59.928;30.306;2022-08-05T02:30:06;13.13;;;4.75;;
41253;SDS011;26987;59.928;30.306;2022-08-05T02:32:37;10.73;;;4.78;;
41253;SDS011;26987;59.928;30.306;2022-08-05T02:35:09;12.75;;;4.43;;
41253;SDS011;26987;59.928;30.306;2022-08-05T02:37:38;9.15;;;4.18;;
41253;SDS011;26987;59.928;30.306;2022-08-05T02:40:09;13.25;;;4.32;;
41253;SDS011;26987;59.928;30.306;2022-08-05T02:42:37;13.88;;;4.13;;
41253;SDS011;26987;59.928;30.306;2022-08-05T02:45:08;14.48;;;4.55;;
41253;SDS011;26987;59.928;30.306;2022-08-05T02:47:37;8.90;;;3.67;;
41253;SDS011;26987;59.928;30.306;2022-08-05T02:50:06;9.35;;;3.97;;
41253;SDS011;26987;59.928;30.306;2022-08-05T02:52:36;9.95;;;3.97;;
41253;SDS011;26987;59.928;30.306;2022-08-05T02:55:04;12.48;;;3.90;;
41253;SDS011;26987;59.928;30.306;2022-08-05T02:57:34;8.80;;;4.07;;
41253;SDS011;26987;59.928;30.306;2022-08-05T03:00:07;10.88;;;4.47;;
41253;SDS011;26987;59.928;30.306;2022-08-05T03:02:38;9.57;;;4.40;;
41253;SDS011;26987;59.928;30.306;2022-08-05T03:05:08;10.77;;;3.80;;
41253;SDS011;26987;59.928;30.306;2022-08-05T03:07:38;13.85;;;3.90;;
41253;SDS011;26987;59.928;30.306;2022-08-05T03:10:08;16.40;;;4.70;;
41253;SDS011;26987;59.928;30.306;2022-08-05T03:12:37;12.00;;;4.72;;
41253;SDS011;26987;59.928;30.306;2022-08-05T03:15:09;14.57;;;4.82;;
41253;SDS011;26987;59.928;30.306;2022-08-05T03:17:37;14.25;;;4.68;;
41253;SDS011;26987;59.928;30.306;2022-08-05T03:20:05;13.68;;;4.63;;
41253;SDS011;26987;59.928;30.306;2022-08-05T03:22:34;16.70;;;5.00;;
41253;SDS011;26987;59.928;30.306;2022-08-05T03:25:02;13.45;;;4.75;;
41253;SDS011;26987;59.928;30.306;2022-08-05T03:27:30;14.63;;;5.25;;
41253;SDS011;26987;59.928;30.306;2022-08-05T03:29:58;12.52;;;5.00;;
41253;SDS011;26987;59.928;30.306;2022-08-05T03:32:27;9.00;;;3.80;;
41253;SDS011;26987;59.928;30.306;2022-08-05T03:34:55;9.52;;;4.50;;
41253;SDS011;26987;59.928;30.306;2022-08-05T03:37:23;20.98;;;5.82;;
41253;SDS011;26987;59.928;30.306;2022-08-05T03:39:53;27.77;;;6.03;;
41253;SDS011;26987;59.928;30.306;2022-08-05T03:42:22;14.05;;;5.28;;
41253;SDS011;26987;59.928;30.306;2022-08-05T03:44:51;15.25;;;4.80;;
41253;SDS011;26987;59.928;30.306;2022-08-05T03:47:19;11.32;;;5.00;;
41253;SDS011;26987;59.928;30.306;2022-08-05T03:49:48;12.18;;;4.40;;
41253;SDS011;26987;59.928;30.306;2022-08-05T03:52:17;10.52;;;4.43;;
41253;SDS011;26987;59.928;30.306;2022-08-05T03:54:50;11.20;;;4.68;;
41253;SDS011;26987;59.928;30.306;2022-08-05T03:57:22;11.25;;;4.43;;
41253;SDS011;26987;59.928;30.306;2022-08-05T03:59:55;11.85;;;4.65;;
41253;SDS011;26987;59.928;30.306;2022-08-05T04:02:27;11.07;;;4.80;;
41253;SDS011;26987;59.928;30.306;2022-08-05T04:04:59;10.52;;;3.85;;
41253;SDS011;26987;59.928;30.306;2022-08-05T04:07:28;10.95;;;3.60;;
41253;SDS011;26987;59.928;30.306;2022-08-05T04:09:57;13.65;;;4.32;;
41253;SDS011;26987;59.928;30.306;2022-08-05T04:12:26;10.32;;;3.75;;
41253;SDS011;26987;59.928;30.306;2022-08-05T04:14:56;9.05;;;3.22;;
41253;SDS011;26987;59.928;30.306;2022-08-05T04:17:25;9.05;;;3.28;;
41253;SDS011;26987;59.928;30.306;2022-08-05T04:19:53;7.18;;;3.65;;
41253;SDS011;26987;59.928;30.306;2022-08-05T04:22:23;5.78;;;3.17;;
41253;SDS011;26987;59.928;30.306;2022-08-05T04:24:51;6.85;;;3.47;;
41253;SDS011;26987;59.928;30.306;2022-08-05T04:27:18;7.93;;;3.67;;
41253;SDS011;26987;59.928;30.306;2022-08-05T04:29:46;7.40;;;3.67;;
41253;SDS011;26987;59.928;30.306;2022-08-05T04:32:14;9.23;;;3.30;;
41253;SDS011;26987;59.928;30.306;2022-08-05T04:34:42;5.65;;;3.03;;
41253;SDS011;26987;59.928;30.306;2022-08-05T04:37:10;7.70;;;3.22;;
41253;SDS011;26987;59.928;30.306;2022-08-05T04:39:40;7.30;;;3.00;;
41253;SDS011;26987;59.928;30.306;2022-08-05T04:42:08;9.68;;;3.38;;
41253;SDS011;26987;59.928;30.306;2022-08-05T04:44:36;8.10;;;2.55;;
41253;SDS011;26987;59.928;30.306;2022-08-05T04:47:04;8.05;;;2.70;;
41253;SDS011;26987;59.928;30.306;2022-08-05T04:49:32;7.65;;;3.05;;
41253;SDS011;26987;59.928;30.306;2022-08-05T04:52:00;6.22;;;2.85;;
41253;SDS011;26987;59.928;30.306;2022-08-05T04:54:28;8.32;;;3.00;;
41253;SDS011;26987;59.928;30.306;2022-08-05T04:56:57;11.80;;;3.30;;
41253;SDS011;26987;59.928;30.306;2022-08-05T04:59:25;8.43;;;3.13;;
41253;SDS011;26987;59.928;30.306;2022-08-05T05:01:53;4.55;;;2.95;;
41253;SDS011;26987;59.928;30.306;2022-08-05T05:04:23;10.70;;;3.63;;
41253;SDS011;26987;59.928;30.306;2022-08-05T05:06:51;10.82;;;2.95;;
41253;SDS011;26987;59.928;30.306;2022-08-05T05:09:19;7.35;;;2.53;;
41253;SDS011;26987;59.928;30.306;2022-08-05T05:11:47;7.35;;;3.15;;
41253;SDS011;26987;59.928;30.306;2022-08-05T05:14:16;8.55;;;2.90;;
41253;SDS011;26987;59.928;30.306;2022-08-05T05:16:44;9.38;;;3.03;;
41253;SDS011;26987;59.928;30.306;2022-08-05T05:19:12;11.70;;;3.58;;
41253;SDS011;26987;59.928;30.306;2022-08-05T05:21:40;9.75;;;3.25;;
41253;SDS011;26987;59.928;30.306;2022-08-05T05:24:07;7.00;;;3.25;;
41253;SDS011;26987;59.928;30.306;2022-08-05T05:26:35;13.18;;;3.20;;
41253;SDS011;26987;59.928;30.306;2022-08-05T05:29:03;7.95;;;3.00;;
41253;SDS011;26987;59.928;30.306;2022-08-05T05:31:33;7.75;;;2.72;;
41253;SDS011;26987;59.928;30.306;2022-08-05T05:34:01;5.97;;;2.33;;
41253;SDS011;26987;59.928;30.306;2022-08-05T05:36:29;9.43;;;3.00;;
41253;SDS011;26987;59.928;30.306;2022-08-05T05:38:57;12.38;;;2.47;;
41253;SDS011;26987;59.928;30.306;2022-08-05T05:41:25;7.80;;;2.88;;
41253;SDS011;26987;59.928;30.306;2022-08-05T05:43:53;10.65;;;2.60;;
41253;SDS011;26987;59.928;30.306;2022-08-05T05:46:21;8.27;;;2.42;;
41253;SDS011;26987;59.928;30.306;2022-08-05T05:48:50;10.43;;;2.50;;
41253;SDS011;26987;59.928;30.306;2022-08-05T05:51:19;6.72;;;2.42;;
41253;SDS011;26987;59.928;30.306;2022-08-05T05:53:48;8.35;;;2.85;;
41253;SDS011;26987;59.928;30.306;2022-08-05T05:56:16;11.20;;;3.00;;
41253;SDS011;26987;59.928;30.306;2022-08-05T05:58:45;8.55;;;2.92;;
41253;SDS011;26987;59.928;30.306;2022-08-05T06:01:14;10.20;;;2.88;;
41253;SDS011;26987;59.928;30.306;2022-08-05T06:03:42;11.80;;;3.05;;
41253;SDS011;26987;59.928;30.306;2022-08-05T06:06:11;11.15;;;2.45;;
41253;SDS011;26987;59.928;30.306;2022-08-05T06:08:39;10.10;;;3.28;;
41253;SDS011;26987;59.928;30.306;2022-08-05T06:11:09;8.93;;;2.80;;
41253;SDS011;26987;59.928;30.306;2022-08-05T06:13:37;10.52;;;2.53;;
41253;SDS011;26987;59.928;30.306;2022-08-05T06:16:05;17.20;;;5.00;;
41253;SDS011;26987;59.928;30.306;2022-08-05T06:18:34;15.05;;;3.58;;
41253;SDS011;26987;59.928;30.306;2022-08-05T06:21:03;12.38;;;3.00;;
41253;SDS011;26987;59.928;30.306;2022-08-05T06:23:33;12.35;;;2.90;;
41253;SDS011;26987;59.928;30.306;2022-08-05T06:26:01;15.00;;;2.88;;
41253;SDS011;26987;59.928;30.306;2022-08-05T06:28:29;12.15;;;2.50;;
41253;SDS011;26987;59.928;30.306;2022-08-05T06:30:56;13.93;;;3.17;;
41253;SDS011;26987;59.928;30.306;2022-08-05T06:33:24;14.18;;;3.05;;
41253;SDS011;26987;59.928;30.306;2022-08-05T06:35:52;12.15;;;2.92;;
41253;SDS011;26987;59.928;30.306;2022-08-05T06:38:20;7.57;;;2.15;;
41253;SDS011;26987;59.928;30.306;2022-08-05T06:40:50;12.02;;;2.80;;
41253;SDS011;26987;59.928;30.306;2022-08-05T06:43:18;21.00;;;2.80;;
41253;SDS011;26987;59.928;30.306;2022-08-05T06:45:46;16.00;;;3.40;;
41253;SDS011;26987;59.928;30.306;2022-08-05T06:48:14;5.25;;;2.10;;
41253;SDS011;26987;59.928;30.306;2022-08-05T06:50:42;8.90;;;2.00;;
41253;SDS011;26987;59.928;30.306;2022-08-05T06:53:10;10.88;;;2.35;;
41253;SDS011;26987;59.928;30.306;2022-08-05T06:55:40;25.08;;;2.92;;
41253;SDS011;26987;59.928;30.306;2022-08-05T06:58:09;9.85;;;3.00;;
41253;SDS011;26987;59.928;30.306;2022-08-05T07:00:37;9.60;;;2.67;;
41253;SDS011;26987;59.928;30.306;2022-08-05T07:03:05;8.80;;;2.22;;
41253;SDS011;26987;59.928;30.306;2022-08-05T07:05:33;12.27;;;2.53;;
41253;SDS011;26987;59.928;30.306;2022-08-05T07:08:01;9.52;;;2.10;;
41253;SDS011;26987;59.928;30.306;2022-08-05T07:10:29;15.50;;;2.63;;
41253;SDS011;26987;59.928;30.306;2022-08-05T07:12:57;6.93;;;2.10;;
41253;SDS011;26987;59.928;30.306;2022-08-05T07:15:55;3.95;;;1.60;;
41253;SDS011;26987;59.928;30.306;2022-08-05T07:18:52;10.05;;;2.03;;
41253;SDS011;26987;59.928;30.306;2022-08-05T07:21:20;6.38;;;1.98;;
41253;SDS011;26987;59.928;30.306;2022-08-05T07:23:48;5.47;;;1.77;;
41253;SDS011;26987;59.928;30.306;2022-08-05T07:26:16;11.23;;;1.80;;
41253;SDS011;26987;59.928;30.306;2022-08-05T07:28:43;8.95;;;2.42;;
41253;SDS011;26987;59.928;30.306;2022-08-05T07:31:13;8.20;;;1.83;;
41253;SDS011;26987;59.928;30.306;2022-08-05T07:33:41;2.85;;;1.30;;
41253;SDS011;26987;59.928;30.306;2022-08-05T07:36:10;14.27;;;1.77;;
41253;SDS011;26987;59.928;30.306;2022-08-05T07:38:39;10.50;;;2.63;;
41253;SDS011;26987;59.928;30.306;2022-08-05T07:41:08;10.82;;;1.77;;
41253;SDS011;26987;59.928;30.306;2022-08-05T07:43:37;4.10;;;1.80;;
41253;SDS011;26987;59.928;30.306;2022-08-05T07:46:05;6.82;;;1.40;;
41253;SDS011;26987;59.928;30.306;2022-08-05T07:48:35;9.13;;;1.92;;
41253;SDS011;26987;59.928;30.306;2022-08-05T07:51:03;7.32;;;1.70;;
41253;SDS011;26987;59.928;30.306;2022-08-05T07:53:30;5.78;;;1.25;;
41253;SDS011;26987;59.928;30.306;2022-08-05T07:55:58;7.05;;;1.52;;
41253;SDS011;26987;59.928;30.306;2022-08-05T07:58:26;7.63;;;1.50;;
41253;SDS011;26987;59.928;30.306;2022-08-05T08:00:54;12.57;;;2.67;;
41253;SDS011;26987;59.928;30.306;2022-08-05T08:03:22;6.47;;;2.05;;
41253;SDS011;26987;59.928;30.306;2022-08-05T08:05:52;6.85;;;1.67;;
41253;SDS011;26987;59.928;30.306;2022-08-05T08:08:20;6.25;;;1.58;;
41253;SDS011;26987;59.928;30.306;2022-08-05T08:10:47;7.47;;;1.42;;
41253;SDS011;26987;59.928;30.306;2022-08-05T08:13:16;8.00;;;1.17;;
41253;SDS011;26987;59.928;30.306;2022-08-05T08:15:44;11.98;;;1.67;;
41253;SDS011;26987;59.928;30.306;2022-08-05T08:18:12;11.60;;;2.25;;
41253;SDS011;26987;59.928;30.306;2022-08-05T08:20:40;13.90;;;2.63;;
41253;SDS011;26987;59.928;30.306;2022-08-05T08:23:09;10.90;;;3.90;;
41253;SDS011;26987;59.928;30.306;2022-08-05T08:25:37;7.45;;;2.97;;
41253;SDS011;26987;59.928;30.306;2022-08-05T08:28:05;9.85;;;1.73;;
41253;SDS011;26987;59.928;30.306;2022-08-05T08:30:33;8.60;;;1.65;;
41253;SDS011;26987;59.928;30.306;2022-08-05T08:33:05;10.48;;;2.05;;
41253;SDS011;26987;59.928;30.306;2022-08-05T08:35:34;5.85;;;1.60;;
41253;SDS011;26987;59.928;30.306;2022-08-05T08:38:02;2.67;;;1.52;;
41253;SDS011;26987;59.928;30.306;2022-08-05T08:40:32;5.13;;;2.78;;
41253;SDS011;26987;59.928;30.306;2022-08-05T08:43:01;4.82;;;1.85;;
41253;SDS011;26987;59.928;30.306;2022-08-05T08:45:29;3.63;;;1.30;;
41253;SDS011;26987;59.928;30.306;2022-08-05T08:47:59;3.15;;;1.40;;
41253;SDS011;26987;59.928;30.306;2022-08-05T08:50:30;9.82;;;2.10;;
41253;SDS011;26987;59.928;30.306;2022-08-05T08:53:00;18.52;;;3.25;;
41253;SDS011;26987;59.928;30.306;2022-08-05T08:55:31;6.75;;;1.88;;
41253;SDS011;26987;59.928;30.306;2022-08-05T08:58:01;8.02;;;1.70;;
41253;SDS011;26987;59.928;30.306;2022-08-05T09:00:29;8.45;;;2.05;;
41253;SDS011;26987;59.928;30.306;2022-08-05T09:02:57;4.05;;;1.60;;
41253;SDS011;26987;59.928;30.306;2022-08-05T09:05:26;4.25;;;1.40;;
41253;SDS011;26987;59.928;30.306;2022-08-05T09:07:54;3.08;;;1.85;;
41253;SDS011;26987;59.928;30.306;2022-08-05T09:10:22;5.28;;;1.60;;
41253;SDS011;26987;59.928;30.306;2022-08-05T09:12:51;3.90;;;2.15;;
41253;SDS011;26987;59.928;30.306;2022-08-05T09:15:19;7.13;;;1.38;;
41253;SDS011;26987;59.928;30.306;2022-08-05T09:17:47;8.80;;;1.42;;
41253;SDS011;26987;59.928;30.306;2022-08-05T09:20:16;5.72;;;2.22;;
41253;SDS011;26987;59.928;30.306;2022-08-05T09:23:01;3.70;;;1.15;;
41253;SDS011;26987;59.928;30.306;2022-08-05T09:25:35;8.82;;;1.38;;
41253;SDS011;26987;59.928;30.306;2022-08-05T09:28:09;13.27;;;1.98;;
41253;SDS011;26987;59.928;30.306;2022-08-05T09:30:41;6.53;;;1.73;;
41253;SDS011;26987;59.928;30.306;2022-08-05T09:33:10;7.22;;;1.52;;
41253;SDS011;26987;59.928;30.306;2022-08-05T09:35:38;6.13;;;1.67;;
41253;SDS011;26987;59.928;30.306;2022-08-05T09:38:19;6.00;;;1.30;;
41253;SDS011;26987;59.928;30.306;2022-08-05T09:40:47;6.35;;;1.63;;
41253;SDS011;26987;59.928;30.306;2022-08-05T09:43:27;4.32;;;1.70;;
41253;SDS011;26987;59.928;30.306;2022-08-05T09:45:57;5.10;;;1.40;;
41253;SDS011;26987;59.928;30.306;2022-08-05T09:48:25;7.13;;;3.13;;
41253;SDS011;26987;59.928;30.306;2022-08-05T09:53:23;9.98;;;1.83;;
41253;SDS011;26987;59.928;30.306;2022-08-05T09:55:53;2.55;;;1.10;;
41253;SDS011;26987;59.928;30.306;2022-08-05T09:58:23;6.38;;;2.15;;
41253;SDS011;26987;59.928;30.306;2022-08-05T10:00:54;3.80;;;1.60;;
41253;SDS011;26987;59.928;30.306;2022-08-05T10:06:04;9.02;;;1.95;;
41253;SDS011;26987;59.928;30.306;2022-08-05T10:08:34;11.82;;;2.28;;
41253;SDS011;26987;59.928;30.306;2022-08-05T10:11:03;7.53;;;4.25;;
41253;SDS011;26987;59.928;30.306;2022-08-05T10:13:39;10.80;;;1.85;;
41253;SDS011;26987;59.928;30.306;2022-08-05T10:16:27;4.70;;;1.42;;
41253;SDS011;26987;59.928;30.306;2022-08-05T10:18:57;5.07;;;1.42;;
41253;SDS011;26987;59.928;30.306;2022-08-05T10:21:25;2.55;;;1.17;;
41253;SDS011;26987;59.928;30.306;2022-08-05T10:23:53;4.82;;;1.73;;
41253;SDS011;26987;59.928;30.306;2022-08-05T10:26:22;8.93;;;1.80;;
41253;SDS011;26987;59.928;30.306;2022-08-05T10:28:50;3.65;;;1.60;;
41253;SDS011;26987;59.928;30.306;2022-08-05T10:31:19;7.68;;;1.58;;
41253;SDS011;26987;59.928;30.306;2022-08-05T10:33:47;3.63;;;1.75;;
41253;SDS011;26987;59.928;30.306;2022-08-05T10:36:16;6.13;;;1.60;;
41253;SDS011;26987;59.928;30.306;2022-08-05T10:38:45;2.55;;;1.70;;
41253;SDS011;26987;59.928;30.306;2022-08-05T10:41:17;3.40;;;1.60;;
41253;SDS011;26987;59.928;30.306;2022-08-05T10:43:56;4.60;;;1.60;;
41253;SDS011;26987;59.928;30.306;2022-08-05T10:49:11;7.30;;;2.30;;
41253;SDS011;26987;59.928;30.306;2022-08-05T10:51:43;4.03;;;1.50;;
41253;SDS011;26987;59.928;30.306;2022-08-05T10:54:12;3.40;;;1.30;;
41253;SDS011;26987;59.928;30.306;2022-08-05T10:56:45;3.63;;;1.23;;
41253;SDS011;26987;59.928;30.306;2022-08-05T10:59:17;3.95;;;1.55;;
41253;SDS011;26987;59.928;30.306;2022-08-05T11:01:47;3.50;;;1.30;;
41253;SDS011;26987;59.928;30.306;2022-08-05T11:04:16;4.30;;;1.63;;
41253;SDS011;26987;59.928;30.306;2022-08-05T11:07:03;4.85;;;1.67;;
41253;SDS011;26987;59.928;30.306;2022-08-05T11:09:37;3.50;;;1.20;;
41253;SDS011;26987;59.928;30.306;2022-08-05T11:15:15;4.30;;;1.80;;
41253;SDS011;26987;59.928;30.306;2022-08-05T11:17:46;4.47;;;1.38;;
41253;SDS011;26987;59.928;30.306;2022-08-05T11:20:30;2.90;;;1.67;;
41253;SDS011;26987;59.928;30.306;2022-08-05T11:26:03;3.72;;;1.42;;
41253;SDS011;26987;59.928;30.306;2022-08-05T11:28:39;2.60;;;1.50;;
41253;SDS011;26987;59.928;30.306;2022-08-05T11:31:24;2.72;;;1.50;;
41253;SDS011;26987;59.928;30.306;2022-08-05T11:34:02;2.25;;;1.40;;
41253;SDS011;26987;59.928;30.306;2022-08-05T11:36:39;2.42;;;1.40;;
41253;SDS011;26987;59.928;30.306;2022-08-05T11:39:12;4.80;;;1.80;;
41253;SDS011;26987;59.928;30.306;2022-08-05T11:41:47;2.42;;;1.80;;
41253;SDS011;26987;59.928;30.306;2022-08-05T11:44:18;3.28;;;1.30;;
41253;SDS011;26987;59.928;30.306;2022-08-05T11:46:47;10.50;;;1.95;;
41253;SDS011;26987;59.928;30.306;2022-08-05T11:49:19;3.38;;;1.80;;
41253;SDS011;26987;59.928;30.306;2022-08-05T11:51:52;2.20;;;1.63;;
41253;SDS011;26987;59.928;30.306;2022-08-05T11:54:20;4.28;;;1.63;;
41253;SDS011;26987;59.928;30.306;2022-08-05T11:56:52;3.75;;;1.80;;
41253;SDS011;26987;59.928;30.306;2022-08-05T11:59:21;3.08;;;1.30;;
41253;SDS011;26987;59.928;30.306;2022-08-05T12:01:52;3.15;;;1.27;;
41253;SDS011;26987;59.928;30.306;2022-08-05T12:04:27;4.28;;;1.48;;
41253;SDS011;26987;59.928;30.306;2022-08-05T12:06:58;4.03;;;1.70;;
41253;SDS011;26987;59.928;30.306;2022-08-05T12:09:26;3.58;;;1.70;;
41253;SDS011;26987;59.928;30.306;2022-08-05T12:11:56;2.80;;;1.67;;
41253;SDS011;26987;59.928;30.306;2022-08-05T12:14:24;3.20;;;1.45;;
41253;SDS011;26987;59.928;30.306;2022-08-05T12:17:05;5.82;;;1.73;;
41253;SDS011;26987;59.928;30.306;2022-08-05T12:19:40;3.97;;;1.80;;
41253;SDS011;26987;59.928;30.306;2022-08-05T12:22:09;1.50;;;1.40;;
41253;SDS011;26987;59.928;30.306;2022-08-05T12:24:39;4.47;;;1.90;;
41253;SDS011;26987;59.928;30.306;2022-08-05T12:27:08;3.30;;;1.50;;
41253;SDS011;26987;59.928;30.306;2022-08-05T12:29:36;2.85;;;1.80;;
41253;SDS011;26987;59.928;30.306;2022-08-05T12:32:04;2.28;;;1.50;;
41253;SDS011;26987;59.928;30.306;2022-08-05T12:34:33;7.18;;;1.80;;
41253;SDS011;26987;59.928;30.306;2022-08-05T12:37:06;3.17;;;1.60;;
41253;SDS011;26987;59.928;30.306;2022-08-05T12:39:38;3.88;;;1.80;;
41253;SDS011;26987;59.928;30.306;2022-08-05T12:42:07;2.83;;;1.60;;
41253;SDS011;26987;59.928;30.306;2022-08-05T12:44:36;3.33;;;1.50;;
41253;SDS011;26987;59.928;30.306;2022-08-05T12:47:05;3.63;;;2.05;;
41253;SDS011;26987;59.928;30.306;2022-08-05T12:49:40;3.20;;;2.00;;
41253;SDS011;26987;59.928;30.306;2022-08-05T12:52:13;5.40;;;2.45;;
41253;SDS011;26987;59.928;30.306;2022-08-05T12:54:43;3.90;;;1.83;;
41253;SDS011;26987;59.928;30.306;2022-08-05T12:57:12;3.13;;;1.70;;
41253;SDS011;26987;59.928;30.306;2022-08-05T12:59:45;5.50;;;1.60;;
41253;SDS011;26987;59.928;30.306;2022-08-05T13:02:15;8.27;;;2.80;;
41253;SDS011;26987;59.928;30.306;2022-08-05T13:04:46;6.38;;;2.15;;
41253;SDS011;26987;59.928;30.306;2022-08-05T13:07:17;3.83;;;2.55;;
41253;SDS011;26987;59.928;30.306;2022-08-05T13:09:48;3.08;;;2.00;;
41253;SDS011;26987;59.928;30.306;2022-08-05T13:12:18;2.20;;;1.70;;
41253;SDS011;26987;59.928;30.306;2022-08-05T13:14:48;2.38;;;1.90;;
41253;SDS011;26987;59.928;30.306;2022-08-05T13:17:18;3.15;;;1.85;;
41253;SDS011;26987;59.928;30.306;2022-08-05T13:19:57;3.40;;;2.05;;
41253;SDS011;26987;59.928;30.306;2022-08-05T13:22:28;5.38;;;2.28;;
41253;SDS011;26987;59.928;30.306;2022-08-05T13:24:56;2.92;;;1.73;;
41253;SDS011;26987;59.928;30.306;2022-08-05T13:27:26;4.22;;;2.20;;
41253;SDS011;26987;59.928;30.306;2022-08-05T13:29:56;3.20;;;1.80;;
41253;SDS011;26987;59.928;30.306;2022-08-05T13:32:24;3.40;;;1.80;;
41253;SDS011;26987;59.928;30.306;2022-08-05T13:34:52;2.90;;;1.80;;
41253;SDS011;26987;59.928;30.306;2022-08-05T13:37:21;3.25;;;1.80;;
41253;SDS011;26987;59.928;30.306;2022-08-05T13:39:50;2.53;;;2.10;;
41253;SDS011;26987;59.928;30.306;2022-08-05T13:42:20;3.47;;;2.08;;
41253;SDS011;26987;59.928;30.306;2022-08-05T13:44:49;4.47;;;2.15;;
41253;SDS011;26987;59.928;30.306;2022-08-05T13:47:17;2.08;;;1.73;;
41253;SDS011;26987;59.928;30.306;2022-08-05T13:49:46;4.85;;;2.15;;
41253;SDS011;26987;59.928;30.306;2022-08-05T13:52:14;3.38;;;1.90;;
41253;SDS011;26987;59.928;30.306;2022-08-05T13:54:43;3.75;;;1.83;;
41253;SDS011;26987;59.928;30.306;2022-08-05T13:57:13;6.20;;;2.40;;
41253;SDS011;26987;59.928;30.306;2022-08-05T13:59:42;6.30;;;2.33;;
41253;SDS011;26987;59.928;30.306;2022-08-05T14:02:10;2.13;;;1.70;;
41253;SDS011;26987;59.928;30.306;2022-08-05T14:04:40;4.85;;;2.28;;
41253;SDS011;26987;59.928;30.306;2022-08-05T14:07:26;2.33;;;1.88;;
41253;SDS011;26987;59.928;30.306;2022-08-05T14:09:56;3.00;;;2.15;;
41253;SDS011;26987;59.928;30.306;2022-08-05T14:12:26;5.93;;;2.50;;
41253;SDS011;26987;59.928;30.306;2022-08-05T14:14:54;2.85;;;2.10;;
41253;SDS011;26987;59.928;30.306;2022-08-05T14:17:22;6.30;;;2.50;;
41253;SDS011;26987;59.928;30.306;2022-08-05T14:19:51;2.88;;;2.15;;
41253;SDS011;26987;59.928;30.306;2022-08-05T14:22:20;3.28;;;2.10;;
41253;SDS011;26987;59.928;30.306;2022-08-05T14:24:48;4.03;;;2.50;;
41253;SDS011;26987;59.928;30.306;2022-08-05T14:27:17;6.13;;;2.58;;
41253;SDS011;26987;59.928;30.306;2022-08-05T14:29:46;4.90;;;2.55;;
41253;SDS011;26987;59.928;30.306;2022-08-05T14:32:14;2.70;;;2.00;;
41253;SDS011;26987;59.928;30.306;2022-08-05T14:34:42;5.88;;;2.00;;
41253;SDS011;26987;59.928;30.306;2022-08-05T14:37:10;3.65;;;2.13;;
41253;SDS011;26987;59.928;30.306;2022-08-05T14:39:38;10.48;;;2.30;;
41253;SDS011;26987;59.928;30.306;2022-08-05T14:42:06;4.70;;;2.10;;
41253;SDS011;26987;59.928;30.306;2022-08-05T14:44:34;3.40;;;1.90;;
41253;SDS011;26987;59.928;30.306;2022-08-05T14:47:03;3.22;;;1.83;;
41253;SDS011;26987;59.928;30.306;2022-08-05T14:49:31;3.80;;;2.20;;
41253;SDS011;26987;59.928;30.306;2022-08-05T14:51:59;2.75;;;1.90;;
41253;SDS011;26987;59.928;30.306;2022-08-05T14:54:27;2.17;;;1.67;;
41253;SDS011;26987;59.928;30.306;2022-08-05T14:56:55;4.95;;;2.22;;
41253;SDS011;26987;59.928;30.306;2022-08-05T14:59:23;4.22;;;2.28;;
41253;SDS011;26987;59.928;30.306;2022-08-05T15:01:51;5.20;;;2.58;;
41253;SDS011;26987;59.928;30.306;2022-08-05T15:04:21;3.28;;;2.25;;